Time;durP1;ratioP1;P1;durP2;ratioP2;P2;SDS_P1;SDS_P2;PMS_P1;PMS_P2;Temp;Humidity;BMP_temperature;BMP_pressure;BME280_temperature;BME280_humidity;BME280_pressure;Samples;Min_cycle;Max_cycle;Signal;HPM_P1;HPM_P2
2022/01/07 00:00:16;;;;;;;0.52;0.52;;;-2.60;95.00;;;;;;5073128;28;20209;-67
2022/01/07 00:02:55;;;;;;;0.40;0.40;;;-2.60;95.10;;;;;;5073193;28;20245;-68
2022/01/07 00:05:23;;;;;;;0.65;0.65;;;-2.60;95.10;;;;;;5073078;28;20193;-67
2022/01/07 00:07:48;;;;;;;0.47;0.47;;;-2.50;95.30;;;;;;5072989;28;20681;-68
2022/01/07 00:10:16;;;;;;;0.40;0.40;;;-2.50;95.20;;;;;;5072840;28;20177;-68
2022/01/07 00:12:43;;;;;;;0.40;0.40;;;-2.40;95.00;;;;;;5073278;28;20659;-68
2022/01/07 00:15:09;;;;;;;0.40;0.40;;;-2.30;94.90;;;;;;5076915;28;20276;-67
2022/01/07 00:17:35;;;;;;;0.43;0.43;;;-2.30;94.70;;;;;;5076910;28;20261;-68
2022/01/07 00:20:01;;;;;;;0.40;0.40;;;-2.30;94.40;;;;;;5076872;28;20461;-68
2022/01/07 00:22:26;;;;;;;0.60;0.60;;;-2.40;94.30;;;;;;5077070;28;20590;-68
2022/01/07 00:24:52;;;;;;;0.50;0.50;;;-2.40;94.20;;;;;;5077052;28;20391;-67
2022/01/07 00:27:18;;;;;;;0.50;0.50;;;-2.40;94.30;;;;;;5076788;28;20172;-68
2022/01/07 00:29:43;;;;;;;0.40;0.40;;;-2.50;94.20;;;;;;5076581;28;20897;-68
2022/01/07 00:32:09;;;;;;;0.50;0.50;;;-2.50;94.20;;;;;;5076969;28;20200;-68
2022/01/07 00:34:35;;;;;;;0.40;0.40;;;-2.50;94.20;;;;;;5077148;28;20177;-68
2022/01/07 00:37:00;;;;;;;0.40;0.40;;;-2.60;94.10;;;;;;5076818;28;20702;-68
2022/01/07 00:39:26;;;;;;;0.40;0.40;;;-2.60;94.00;;;;;;5076300;28;20201;-67
2022/01/07 00:41:51;;;;;;;0.40;0.40;;;-2.50;94.20;;;;;;5076712;28;20530;-68
2022/01/07 00:44:17;;;;;;;0.47;0.47;;;-2.50;94.40;;;;;;5076766;28;20631;-68
2022/01/07 00:46:43;;;;;;;0.53;0.53;;;-2.40;94.70;;;;;;5076371;28;20186;-68
2022/01/07 00:49:09;;;;;;;0.40;0.40;;;-2.20;94.90;;;;;;5076357;28;20270;-68
2022/01/07 00:51:35;;;;;;;0.30;0.30;;;-2.10;95.00;;;;;;5076577;28;20172;-68
2022/01/07 00:54:00;;;;;;;0.30;0.30;;;-1.80;94.90;;;;;;5076523;28;20530;-68
2022/01/07 00:56:26;;;;;;;0.40;0.40;;;-1.70;94.70;;;;;;5076207;28;20189;-68
2022/01/07 00:58:52;;;;;;;0.40;0.40;;;-1.50;94.40;;;;;;5076037;28;20666;-68
2022/01/07 01:01:17;;;;;;;0.50;0.50;;;-1.40;94.10;;;;;;5076419;28;20189;-68
2022/01/07 01:03:43;;;;;;;0.40;0.40;;;-1.30;94.00;;;;;;5076366;28;20166;-68
2022/01/07 01:06:09;;;;;;;0.40;0.40;;;-1.20;94.00;;;;;;5076258;28;20185;-68
2022/01/07 01:08:34;;;;;;;0.40;0.40;;;-1.10;93.90;;;;;;5075909;28;20184;-68
2022/01/07 01:11:00;;;;;;;0.30;0.30;;;-1.10;93.70;;;;;;5076187;28;20408;-68
2022/01/07 01:13:26;;;;;;;0.30;0.30;;;-0.90;93.60;;;;;;5076031;28;20166;-68
2022/01/07 01:15:52;;;;;;;0.40;0.40;;;-0.80;93.30;;;;;;5075888;28;20189;-68
2022/01/07 01:18:17;;;;;;;0.40;0.40;;;-0.80;92.90;;;;;;5074425;28;20697;-68
2022/01/07 01:20:43;;;;;;;0.53;0.53;;;-0.80;92.90;;;;;;5075879;28;20228;-68
2022/01/07 01:23:09;;;;;;;0.50;0.50;;;-0.70;92.90;;;;;;5075999;28;20253;-68
2022/01/07 01:25:34;;;;;;;0.40;0.40;;;-0.70;92.90;;;;;;5075605;28;20193;-68
2022/01/07 01:28:00;;;;;;;0.30;0.30;;;-0.60;93.00;;;;;;5075805;28;20169;-68
2022/01/07 01:30:28;;;;;;;0.40;0.40;;;-0.50;93.20;;;;;;5075753;28;20173;-68
2022/01/07 01:32:54;;;;;;;0.40;0.40;;;-0.50;92.90;;;;;;5076017;28;20173;-68
2022/01/07 01:35:21;;;;;;;0.40;0.40;;;-0.50;92.90;;;;;;5075640;28;20207;-68
2022/01/07 01:37:48;;;;;;;0.30;0.30;;;-0.60;93.20;;;;;;5076137;28;20169;-68
2022/01/07 01:40:15;;;;;;;0.40;0.40;;;-0.70;93.50;;;;;;5075281;28;20180;-68
2022/01/07 01:42:41;;;;;;;0.38;0.38;;;-0.50;94.00;;;;;;5075688;28;20176;-68
2022/01/07 01:45:09;;;;;;;0.40;0.40;;;-0.40;94.10;;;;;;5075537;28;20190;-68
2022/01/07 01:47:35;;;;;;;0.40;0.40;;;-0.20;93.90;;;;;;5075327;28;20165;-68
2022/01/07 01:50:00;;;;;;;0.50;0.50;;;-0.20;93.50;;;;;;5075324;28;20542;-68
2022/01/07 01:52:26;;;;;;;0.40;0.40;;;-0.20;93.30;;;;;;5075528;28;20197;-68
2022/01/07 01:54:52;;;;;;;0.40;0.40;;;-0.10;93.30;;;;;;5075203;28;20404;-68
2022/01/07 01:57:18;;;;;;;0.40;0.40;;;0.00;92.90;;;;;;5075389;28;20414;-68
2022/01/07 01:59:43;;;;;;;0.30;0.30;;;-0.10;92.70;;;;;;5074846;28;20280;-68
2022/01/07 02:02:09;;;;;;;0.40;0.40;;;-0.30;92.90;;;;;;5075152;28;20169;-68
2022/01/07 02:04:38;;;;;;;0.30;0.30;;;-0.30;93.30;;;;;;5075156;28;20561;-68
2022/01/07 02:07:07;;;;;;;0.40;0.40;;;-0.20;93.60;;;;;;5074902;28;20185;-68
2022/01/07 02:09:35;;;;;;;0.30;0.30;;;-0.20;93.70;;;;;;5074786;28;20170;-68
2022/01/07 02:12:04;;;;;;;0.38;0.38;;;-0.10;93.90;;;;;;5074901;28;20260;-68
2022/01/07 02:14:30;;;;;;;0.30;0.30;;;0.00;93.90;;;;;;5074919;28;20169;-68
2022/01/07 02:17:03;;;;;;;0.40;0.40;;;0.10;94.00;;;;;;5074751;28;20208;-68
2022/01/07 02:19:30;;;;;;;0.40;0.40;;;0.20;93.90;;;;;;5074561;28;20471;-68
2022/01/07 02:21:56;;;;;;;0.50;0.50;;;0.20;93.70;;;;;;5074835;28;20253;-68
2022/01/07 02:24:21;;;;;;;0.30;0.30;;;0.30;93.60;;;;;;5074801;28;20567;-68
2022/01/07 02:26:47;;;;;;;0.47;0.47;;;0.40;93.40;;;;;;5074554;28;20554;-68
2022/01/07 02:29:13;;;;;;;0.50;0.50;;;0.40;93.30;;;;;;5074510;28;20647;-68
2022/01/07 02:31:38;;;;;;;0.47;0.47;;;0.40;93.30;;;;;;5074592;28;20252;-68
2022/01/07 02:34:04;;;;;;;0.30;0.30;;;0.50;93.30;;;;;;5074526;28;20177;-68
2022/01/07 02:36:29;;;;;;;0.40;0.40;;;0.50;93.30;;;;;;5073898;28;20192;-68
2022/01/07 02:38:55;;;;;;;0.30;0.30;;;0.50;93.10;;;;;;5074069;28;20216;-68
2022/01/07 02:41:21;;;;;;;0.40;0.40;;;0.40;92.90;;;;;;5074345;28;20253;-68
2022/01/07 02:43:47;;;;;;;0.30;0.30;;;0.50;92.90;;;;;;5074277;28;20165;-68
2022/01/07 02:46:12;;;;;;;0.30;0.30;;;0.40;93.00;;;;;;5074303;28;20209;-68
2022/01/07 02:48:38;;;;;;;0.40;0.40;;;0.40;92.90;;;;;;5074057;28;20240;-68
2022/01/07 02:51:03;;;;;;;0.40;0.40;;;0.50;93.00;;;;;;5074206;28;20173;-68
2022/01/07 02:53:29;;;;;;;0.30;0.30;;;0.50;93.20;;;;;;5074201;28;20173;-67
2022/01/07 02:55:55;;;;;;;0.40;0.40;;;0.50;93.30;;;;;;5074080;28;20566;-68
2022/01/07 02:58:20;;;;;;;0.30;0.30;;;0.60;93.50;;;;;;5073534;28;20201;-68
2022/01/07 03:00:46;;;;;;;0.40;0.40;;;0.60;93.50;;;;;;5073446;28;20162;-68
2022/01/07 03:03:11;;;;;;;0.40;0.40;;;0.60;93.50;;;;;;5073326;28;20173;-67
2022/01/07 03:05:41;;;;;;;0.30;0.30;;;0.60;93.70;;;;;;5073168;28;20558;-68
2022/01/07 03:08:07;;;;;;;0.38;0.38;;;0.70;93.90;;;;;;5072885;28;20246;-68
2022/01/07 03:10:33;;;;;;;0.40;0.40;;;0.70;94.00;;;;;;5073246;28;20197;-68
2022/01/07 03:13:00;;;;;;;0.30;0.30;;;0.80;94.10;;;;;;5073212;28;20408;-68
2022/01/07 03:15:27;;;;;;;0.30;0.30;;;0.80;94.10;;;;;;5072776;28;20559;-68
2022/01/07 03:17:52;;;;;;;0.30;0.30;;;0.90;94.00;;;;;;5072868;28;20188;-68
2022/01/07 03:20:19;;;;;;;0.40;0.40;;;1.00;94.20;;;;;;5072889;28;20174;-68
2022/01/07 03:22:47;;;;;;;0.32;0.32;;;1.00;94.30;;;;;;5073069;28;20628;-68
2022/01/07 03:25:13;;;;;;;0.30;0.30;;;1.00;94.20;;;;;;5072685;28;20238;-68
2022/01/07 03:27:39;;;;;;;0.40;0.40;;;1.10;94.20;;;;;;5072826;28;20166;-68
2022/01/07 03:30:07;;;;;;;0.40;0.40;;;1.10;94.20;;;;;;5072605;28;20267;-68
2022/01/07 03:32:33;;;;;;;0.40;0.40;;;1.20;94.20;;;;;;5072812;28;20623;-68
2022/01/07 03:35:00;;;;;;;0.30;0.30;;;1.20;94.10;;;;;;5072503;28;20188;-68
2022/01/07 03:37:26;;;;;;;0.85;0.75;;;1.10;94.00;;;;;;5072935;28;20211;-68
2022/01/07 03:39:52;;;;;;;0.30;0.30;;;1.10;94.00;;;;;;5072420;28;20201;-68
2022/01/07 03:42:17;;;;;;;0.30;0.30;;;1.20;94.10;;;;;;5072690;28;20174;-68
2022/01/07 03:44:43;;;;;;;0.30;0.30;;;1.20;94.10;;;;;;5072674;28;20173;-68
2022/01/07 03:47:09;;;;;;;0.30;0.30;;;1.20;94.00;;;;;;5071782;28;20193;-68
2022/01/07 03:49:35;;;;;;;0.30;0.30;;;1.10;93.90;;;;;;5071987;28;20177;-68
2022/01/07 03:52:00;;;;;;;0.30;0.30;;;1.00;94.00;;;;;;5072655;28;20404;-68
2022/01/07 03:54:26;;;;;;;0.30;0.30;;;1.00;94.10;;;;;;5072706;28;20165;-68
2022/01/07 03:56:52;;;;;;;0.37;0.37;;;1.00;94.10;;;;;;5072358;28;20435;-68
2022/01/07 03:59:17;;;;;;;0.30;0.30;;;0.90;94.10;;;;;;5032901;28;1129872;-68
2022/01/07 04:01:43;;;;;;;0.30;0.30;;;1.00;94.20;;;;;;5073239;28;20498;-68
2022/01/07 04:04:09;;;;;;;0.30;0.30;;;1.10;94.30;;;;;;5073368;28;20631;-68
2022/01/07 04:06:34;;;;;;;0.70;0.70;;;1.10;94.20;;;;;;5073304;28;20563;-68
2022/01/07 04:09:00;;;;;;;0.30;0.30;;;1.10;94.00;;;;;;5072956;28;20234;-68
2022/01/07 04:11:25;;;;;;;0.30;0.30;;;1.10;94.10;;;;;;5073356;28;20176;-67
2022/01/07 04:13:51;;;;;;;0.30;0.30;;;1.10;94.10;;;;;;5073496;28;20173;-68
2022/01/07 04:16:17;;;;;;;0.40;0.40;;;1.20;94.30;;;;;;5073081;28;20186;-68
2022/01/07 04:18:43;;;;;;;0.40;0.40;;;1.20;94.20;;;;;;5072928;28;20229;-68
2022/01/07 04:21:09;;;;;;;0.40;0.40;;;1.20;94.00;;;;;;5073114;28;20396;-68
2022/01/07 04:23:35;;;;;;;0.40;0.40;;;1.30;94.10;;;;;;5073029;28;20395;-68
2022/01/07 04:26:01;;;;;;;0.30;0.30;;;1.20;94.20;;;;;;5072872;28;20277;-68
2022/01/07 04:28:26;;;;;;;0.40;0.40;;;1.20;94.20;;;;;;5072767;28;20400;-68
2022/01/07 04:30:52;;;;;;;0.30;0.30;;;1.20;94.30;;;;;;5073040;28;20245;-68
2022/01/07 04:33:25;;;;;;;0.40;0.40;;;1.20;94.40;;;;;;5073081;28;20169;-68
2022/01/07 04:35:52;;;;;;;0.30;0.30;;;1.20;94.40;;;;;;5073181;28;20659;-68
2022/01/07 04:38:18;;;;;;;0.40;0.40;;;1.30;94.40;;;;;;5072795;28;20197;-68
2022/01/07 04:40:43;;;;;;;0.30;0.30;;;1.20;94.40;;;;;;5072911;28;20235;-68
2022/01/07 04:43:09;;;;;;;0.30;0.30;;;1.20;94.50;;;;;;5072956;28;20249;-68
2022/01/07 04:45:35;;;;;;;0.30;0.30;;;1.20;94.50;;;;;;5072807;28;20194;-68
2022/01/07 04:48:01;;;;;;;0.30;0.30;;;1.30;94.70;;;;;;5072556;28;20228;-68
2022/01/07 04:50:27;;;;;;;0.30;0.30;;;1.40;94.70;;;;;;5072735;28;20182;-68
2022/01/07 04:52:53;;;;;;;0.30;0.30;;;1.40;94.70;;;;;;5072950;28;20186;-68
2022/01/07 04:55:21;;;;;;;0.30;0.30;;;1.40;94.60;;;;;;5072805;28;20458;-68
2022/01/07 04:57:47;;;;;;;0.30;0.30;;;1.30;94.40;;;;;;5072579;28;20510;-68
2022/01/07 05:00:15;;;;;;;0.30;0.30;;;1.30;94.40;;;;;;5075017;28;20268;-68
2022/01/07 05:02:41;;;;;;;3.33;1.40;;;1.30;94.50;;;;;;5076200;28;20166;-68
2022/01/07 05:05:07;;;;;;;0.30;0.30;;;1.30;94.30;;;;;;5076089;28;20185;-68
2022/01/07 05:07:34;;;;;;;0.30;0.30;;;1.30;94.30;;;;;;5076022;28;20173;-68
2022/01/07 05:10:00;;;;;;;0.35;0.32;;;1.40;94.40;;;;;;5075953;28;20172;-68
2022/01/07 05:12:25;;;;;;;0.33;0.33;;;1.40;94.30;;;;;;5076223;28;20174;-68
2022/01/07 05:14:51;;;;;;;0.30;0.30;;;1.40;94.10;;;;;;5076006;28;20465;-68
2022/01/07 05:17:17;;;;;;;0.30;0.30;;;1.40;94.10;;;;;;5076077;28;20580;-68
2022/01/07 05:19:42;;;;;;;0.30;0.30;;;1.40;94.10;;;;;;5075638;28;20193;-68
2022/01/07 05:22:08;;;;;;;1.77;1.77;;;1.40;94.00;;;;;;5075865;28;20170;-68
2022/01/07 05:24:34;;;;;;;0.40;0.40;;;1.50;94.10;;;;;;5075897;28;20166;-68
2022/01/07 05:26:59;;;;;;;0.30;0.30;;;1.40;94.00;;;;;;5075676;28;20209;-68
2022/01/07 05:29:25;;;;;;;1.53;1.53;;;1.40;94.10;;;;;;5075458;28;20185;-68
2022/01/07 05:31:51;;;;;;;0.40;0.40;;;1.40;94.30;;;;;;5075602;28;20170;-68
2022/01/07 05:34:17;;;;;;;0.40;0.40;;;1.50;94.20;;;;;;5075519;28;20534;-68
2022/01/07 05:36:42;;;;;;;0.30;0.30;;;1.50;94.00;;;;;;5075314;28;20685;-68
2022/01/07 05:39:08;;;;;;;2.53;2.43;;;1.50;94.00;;;;;;5075229;28;20185;-68
2022/01/07 05:41:34;;;;;;;0.30;0.30;;;1.50;94.10;;;;;;5075643;28;20715;-68
2022/01/07 05:44:00;;;;;;;0.40;0.40;;;1.50;94.30;;;;;;5075475;28;20206;-68
2022/01/07 05:46:25;;;;;;;0.30;0.30;;;1.50;94.30;;;;;;5075365;28;20438;-68
2022/01/07 05:48:51;;;;;;;0.37;0.37;;;1.50;94.20;;;;;;5075192;28;20258;-68
2022/01/07 05:51:17;;;;;;;0.30;0.30;;;1.50;94.10;;;;;;5075194;28;20260;-68
2022/01/07 05:53:43;;;;;;;0.30;0.30;;;1.50;94.10;;;;;;5075363;28;20196;-68
2022/01/07 05:56:09;;;;;;;0.33;0.33;;;1.40;94.00;;;;;;5075248;28;20198;-68
2022/01/07 05:58:35;;;;;;;0.30;0.30;;;1.40;94.10;;;;;;5074724;28;20266;-68
2022/01/07 06:01:01;;;;;;;0.40;0.40;;;1.40;94.10;;;;;;5075169;28;20579;-68
2022/01/07 06:03:26;;;;;;;0.40;0.40;;;1.40;94.20;;;;;;5074952;28;20170;-68
2022/01/07 06:05:52;;;;;;;0.30;0.30;;;1.40;94.30;;;;;;5074933;28;20189;-68
2022/01/07 06:08:18;;;;;;;0.40;0.40;;;1.30;94.30;;;;;;5074514;28;20477;-68
2022/01/07 06:10:44;;;;;;;0.40;0.40;;;1.40;94.40;;;;;;5072749;28;20560;-68
2022/01/07 06:13:10;;;;;;;0.30;0.30;;;1.40;94.40;;;;;;5075011;28;20162;-68
2022/01/07 06:15:35;;;;;;;0.30;0.30;;;1.40;94.30;;;;;;5073434;28;20208;-68
2022/01/07 06:18:05;;;;;;;0.40;0.40;;;1.30;94.20;;;;;;5074537;28;20183;-68
2022/01/07 06:20:30;;;;;;;0.30;0.30;;;1.30;94.20;;;;;;5074728;28;20201;-68
2022/01/07 06:22:56;;;;;;;0.30;0.30;;;1.30;94.20;;;;;;5074923;28;20170;-68
2022/01/07 06:25:22;;;;;;;0.40;0.40;;;1.20;94.20;;;;;;5074634;28;20424;-68
2022/01/07 06:27:48;;;;;;;0.30;0.30;;;1.20;94.30;;;;;;5074394;28;20169;-68
2022/01/07 06:30:14;;;;;;;0.40;0.40;;;1.10;94.20;;;;;;5074317;28;20620;-68
2022/01/07 06:32:39;;;;;;;0.30;0.30;;;1.10;94.20;;;;;;5074478;28;20802;-68
2022/01/07 06:35:05;;;;;;;0.40;0.40;;;1.10;94.20;;;;;;5074352;28;20430;-68
2022/01/07 06:37:31;;;;;;;0.30;0.30;;;1.10;94.30;;;;;;5074507;28;20180;-68
2022/01/07 06:39:58;;;;;;;0.30;0.30;;;1.00;94.30;;;;;;5074195;28;20200;-68
2022/01/07 06:42:24;;;;;;;0.30;0.30;;;1.00;94.30;;;;;;5074340;28;20177;-68
2022/01/07 06:44:49;;;;;;;0.30;0.30;;;1.00;94.40;;;;;;5074068;28;20174;-68
2022/01/07 06:47:15;;;;;;;0.30;0.30;;;1.00;94.50;;;;;;5074217;28;20168;-68
2022/01/07 06:49:40;;;;;;;0.37;0.37;;;1.00;94.40;;;;;;5074123;28;20169;-68
2022/01/07 06:52:06;;;;;;;0.33;0.33;;;1.00;94.50;;;;;;5074194;28;20174;-68
2022/01/07 06:54:33;;;;;;;0.30;0.30;;;1.00;94.50;;;;;;5074192;28;20529;-68
2022/01/07 06:56:59;;;;;;;0.30;0.30;;;1.00;94.50;;;;;;5073874;28;20675;-68
2022/01/07 06:59:25;;;;;;;0.30;0.30;;;0.90;94.40;;;;;;5073835;28;20197;-68
2022/01/07 07:01:50;;;;;;;0.30;0.30;;;1.00;94.50;;;;;;5073964;28;20177;-68
2022/01/07 07:04:17;;;;;;;0.30;0.30;;;0.90;94.50;;;;;;5073977;28;20655;-68
2022/01/07 07:06:43;;;;;;;1.40;1.40;;;0.90;94.70;;;;;;5073700;28;20976;-68
2022/01/07 07:09:10;;;;;;;0.30;0.30;;;0.90;94.70;;;;;;5073543;28;20181;-68
2022/01/07 07:11:35;;;;;;;0.40;0.40;;;1.00;95.00;;;;;;5073773;28;20698;-68
2022/01/07 07:14:01;;;;;;;0.30;0.30;;;1.00;94.80;;;;;;5073603;28;20261;-68
2022/01/07 07:16:27;;;;;;;0.40;0.40;;;1.00;94.80;;;;;;5073487;28;20427;-68
2022/01/07 07:18:53;;;;;;;0.30;0.30;;;1.00;94.80;;;;;;5073296;28;20198;-68
2022/01/07 07:21:19;;;;;;;0.40;0.40;;;1.10;94.80;;;;;;5073640;28;20404;-68
2022/01/07 07:23:45;;;;;;;0.30;0.30;;;1.10;94.80;;;;;;5073452;28;20636;-68
2022/01/07 07:26:10;;;;;;;0.30;0.30;;;1.10;94.90;;;;;;5073338;28;20194;-68
2022/01/07 07:28:37;;;;;;;0.30;0.30;;;1.20;94.60;;;;;;5073251;28;20248;-68
2022/01/07 07:31:06;;;;;;;0.30;0.30;;;1.30;94.60;;;;;;5073413;28;20204;-69
2022/01/07 07:33:55;;;;;;;0.30;0.30;;;1.30;94.50;;;;;;5073717;28;20209;-68
2022/01/07 07:36:27;;;;;;;0.40;0.40;;;1.30;94.40;;;;;;5073282;28;20205;-68
2022/01/07 07:38:53;;;;;;;0.40;0.40;;;1.40;94.50;;;;;;5073539;28;20580;-68
2022/01/07 07:41:19;;;;;;;0.30;0.30;;;1.20;94.30;;;;;;5073383;28;20210;-68
2022/01/07 07:43:47;;;;;;;0.40;0.40;;;1.00;94.60;;;;;;5073410;28;20517;-68
2022/01/07 07:46:14;;;;;;;0.40;0.40;;;1.00;95.00;;;;;;5073114;28;20182;-68
2022/01/07 07:48:40;;;;;;;0.38;0.38;;;1.00;95.10;;;;;;5073299;28;20702;-68
2022/01/07 07:51:06;;;;;;;0.30;0.30;;;1.00;95.20;;;;;;5073439;28;20196;-68
2022/01/07 07:53:31;;;;;;;0.37;0.37;;;1.20;95.20;;;;;;5073162;28;20173;-68
2022/01/07 07:55:57;;;;;;;1.53;1.53;;;1.30;95.00;;;;;;5073163;28;20858;-68
2022/01/07 07:58:27;;;;;;;0.40;0.40;;;1.20;94.80;;;;;;5073101;28;20514;-68
2022/01/07 08:00:52;;;;;;;0.30;0.30;;;1.30;94.90;;;;;;5073265;28;20498;-68
2022/01/07 08:03:21;;;;;;;0.40;0.40;;;1.50;95.00;;;;;;5073109;28;20181;-68
2022/01/07 08:05:47;;;;;;;0.30;0.30;;;1.40;94.60;;;;;;5073134;28;20185;-68
2022/01/07 08:08:13;;;;;;;0.30;0.30;;;1.50;94.70;;;;;;5072826;28;20176;-69
2022/01/07 08:10:45;;;;;;;1.93;1.83;;;1.40;94.90;;;;;;5073207;28;20173;-68
2022/01/07 08:18:24;;;;;;;0.30;0.30;;;1.50;95.20;;;;;;5073004;28;20567;-68
2022/01/07 08:20:54;;;;;;;0.40;0.40;;;1.40;94.90;;;;;;5072985;28;20166;-68
2022/01/07 08:23:20;;;;;;;0.30;0.30;;;1.30;95.10;;;;;;5072906;28;20198;-68
2022/01/07 08:25:46;;;;;;;0.30;0.30;;;1.10;95.20;;;;;;5072865;28;20269;-67
2022/01/07 08:28:13;;;;;;;0.40;0.40;;;1.30;95.40;;;;;;5072729;28;20596;-68
2022/01/07 08:31:00;;;;;;;0.30;0.30;;;1.30;95.20;;;;;;5072730;28;20174;-68
2022/01/07 08:36:12;;;;;;;0.40;0.40;;;1.30;95.20;;;;;;5077167;28;20204;-68
2022/01/07 08:38:38;;;;;;;0.40;0.40;;;1.30;95.30;;;;;;5076568;28;20226;-68
2022/01/07 08:41:05;;;;;;;0.30;0.30;;;1.50;95.50;;;;;;5076664;28;20177;-68
2022/01/07 08:43:30;;;;;;;0.40;0.40;;;1.70;95.40;;;;;;5076515;28;20709;-68
2022/01/07 08:45:56;;;;;;;1.20;1.20;;;1.80;95.00;;;;;;5076593;28;20191;-68
2022/01/07 08:48:22;;;;;;;0.40;0.40;;;2.00;94.80;;;;;;5076331;28;20189;-68
2022/01/07 08:50:47;;;;;;;0.40;0.40;;;2.10;94.50;;;;;;5076595;28;20308;-68
2022/01/07 08:53:13;;;;;;;0.30;0.30;;;1.80;94.40;;;;;;5076640;28;20175;-68
2022/01/07 08:55:39;;;;;;;0.40;0.40;;;1.70;94.60;;;;;;5076504;28;20288;-67
2022/01/07 08:58:06;;;;;;;0.40;0.40;;;1.80;95.00;;;;;;5075742;28;20909;-68
2022/01/07 09:00:32;;;;;;;0.30;0.30;;;2.00;94.80;;;;;;5076479;28;20182;-68
2022/01/07 09:03:00;;;;;;;0.38;0.38;;;2.10;94.70;;;;;;5076281;28;20660;-68
2022/01/07 09:05:26;;;;;;;0.30;0.30;;;2.40;94.30;;;;;;5076238;28;20195;-68
2022/01/07 09:07:52;;;;;;;0.32;0.32;;;2.40;94.00;;;;;;5076077;28;20222;-68
2022/01/07 09:10:18;;;;;;;0.40;0.40;;;2.30;94.00;;;;;;5075953;28;20171;-68
2022/01/07 09:12:44;;;;;;;0.40;0.40;;;2.20;94.40;;;;;;5076444;28;20397;-68
2022/01/07 09:15:12;;;;;;;0.40;0.40;;;2.30;94.60;;;;;;5076312;28;20283;-68
2022/01/07 09:17:38;;;;;;;1.15;1.15;;;2.50;94.30;;;;;;5073298;28;20179;-69
2022/01/07 09:20:05;;;;;;;0.40;0.40;;;2.80;94.10;;;;;;5073685;28;20726;-68
2022/01/07 09:22:32;;;;;;;0.38;0.38;;;2.90;93.70;;;;;;5075353;28;20415;-68
2022/01/07 09:24:58;;;;;;;0.40;0.40;;;3.00;93.20;;;;;;5074269;28;20183;-68
2022/01/07 09:27:23;;;;;;;0.40;0.40;;;3.10;93.20;;;;;;5073701;28;20546;-68
2022/01/07 09:29:49;;;;;;;0.33;0.33;;;3.10;92.90;;;;;;5075547;28;20176;-68
2022/01/07 09:32:15;;;;;;;0.30;0.30;;;3.30;93.00;;;;;;5075733;28;20226;-68
2022/01/07 09:34:40;;;;;;;0.40;0.40;;;3.20;92.70;;;;;;5075786;28;20203;-68
2022/01/07 09:37:06;;;;;;;0.30;0.30;;;3.10;92.90;;;;;;5075478;28;20282;-68
2022/01/07 09:39:33;;;;;;;0.40;0.40;;;3.00;93.10;;;;;;5075248;28;20281;-68
2022/01/07 09:42:04;;;;;;;0.40;0.40;;;3.00;93.10;;;;;;5075771;28;20170;-68
2022/01/07 09:44:30;;;;;;;0.40;0.40;;;3.00;93.10;;;;;;5075660;28;20557;-68
2022/01/07 09:46:56;;;;;;;0.30;0.30;;;3.00;93.30;;;;;;5075183;28;20262;-69
2022/01/07 09:49:22;;;;;;;0.30;0.30;;;3.10;93.20;;;;;;5075359;28;20199;-69
2022/01/07 09:51:48;;;;;;;0.38;0.38;;;3.20;93.20;;;;;;5073357;28;20545;-68
2022/01/07 09:54:14;;;;;;;0.40;0.40;;;3.20;93.10;;;;;;5075407;28;20251;-69
2022/01/07 09:56:40;;;;;;;0.40;0.40;;;3.30;93.30;;;;;;5075057;28;20196;-69
2022/01/07 09:59:07;;;;;;;0.40;0.40;;;3.10;93.10;;;;;;5074798;28;20214;-68
2022/01/07 10:01:57;;;;;;;0.30;0.30;;;3.20;92.90;;;;;;5075220;28;20578;-68
2022/01/07 10:04:32;;;;;;;0.30;0.30;;;3.10;93.30;;;;;;5074946;28;20234;-69
2022/01/07 10:07:16;;;;;;;0.40;0.40;;;3.40;93.30;;;;;;5074936;28;20538;-68
2022/01/07 10:09:58;;;;;;;0.35;0.35;;;3.70;93.10;;;;;;5074848;28;20221;-69
2022/01/07 10:12:26;;;;;;;0.30;0.30;;;4.00;92.50;;;;;;5075127;28;20179;-68
2022/01/07 10:15:15;;;;;;;0.30;0.30;;;4.00;92.00;;;;;;5074881;28;20169;-68
2022/01/07 10:17:42;;;;;;;0.30;0.30;;;3.90;91.90;;;;;;5074856;28;20222;-68
2022/01/07 10:20:08;;;;;;;0.40;0.40;;;3.80;92.00;;;;;;5074586;28;20255;-68
2022/01/07 10:22:53;;;;;;;0.40;0.40;;;4.00;92.30;;;;;;5074799;28;20634;-68
2022/01/07 10:25:23;;;;;;;0.30;0.30;;;3.90;91.60;;;;;;5074565;28;20210;-68
2022/01/07 10:27:49;;;;;;;0.40;0.40;;;4.10;91.60;;;;;;5074535;28;20158;-68
2022/01/07 10:30:25;;;;;;;0.33;0.33;;;4.30;91.00;;;;;;5074472;28;20174;-68
2022/01/07 10:32:53;;;;;;;0.40;0.40;;;4.50;90.70;;;;;;5074613;28;20408;-68
2022/01/07 10:35:21;;;;;;;0.40;0.40;;;4.50;90.30;;;;;;5074599;28;20252;-69
2022/01/07 10:37:51;;;;;;;0.40;0.40;;;4.70;90.10;;;;;;5074321;28;20252;-68
2022/01/07 10:40:25;;;;;;;0.40;0.40;;;4.80;89.90;;;;;;5074393;28;20564;-68
2022/01/07 10:43:16;;;;;;;0.40;0.40;;;4.80;89.60;;;;;;5074527;28;20192;-68
2022/01/07 10:45:46;;;;;;;0.40;0.40;;;4.60;89.20;;;;;;5073873;28;20254;-68
2022/01/07 10:48:13;;;;;;;0.30;0.30;;;4.50;90.10;;;;;;5073994;28;20166;-69
2022/01/07 10:50:47;;;;;;;0.38;0.38;;;4.60;91.00;;;;;;5074134;28;20227;-68
2022/01/07 10:53:23;;;;;;;0.38;0.38;;;4.70;91.30;;;;;;5074283;28;20237;-68
2022/01/07 10:56:08;;;;;;;0.30;0.30;;;4.70;90.60;;;;;;5073975;28;20242;-69
2022/01/07 10:58:56;;;;;;;0.35;0.35;;;4.60;90.50;;;;;;5073108;28;20199;-68
2022/01/07 11:01:21;;;;;;;0.40;0.40;;;4.50;90.30;;;;;;5072733;28;20184;-69
2022/01/07 11:03:52;;;;;;;0.40;0.40;;;4.30;90.90;;;;;;5074110;28;20169;-69
2022/01/07 11:06:19;;;;;;;0.30;0.30;;;4.00;91.00;;;;;;5073735;28;20705;-68
2022/01/07 11:08:51;;;;;;;0.30;0.30;;;3.30;91.50;;;;;;5073649;28;20225;-68
2022/01/07 11:11:19;;;;;;;0.40;0.40;;;3.10;92.90;;;;;;5074272;28;20168;-69
2022/01/07 11:13:45;;;;;;;0.40;0.40;;;3.20;93.20;;;;;;5073683;28;20181;-68
2022/01/07 11:16:11;;;;;;;0.30;0.30;;;3.00;92.90;;;;;;5073552;28;20204;-68
2022/01/07 11:18:38;;;;;;;0.30;0.30;;;2.90;93.10;;;;;;5073365;28;20460;-68
2022/01/07 11:21:04;;;;;;;0.30;0.30;;;3.10;93.90;;;;;;5073745;28;20192;-69
2022/01/07 11:23:32;;;;;;;0.30;0.30;;;3.20;93.70;;;;;;5073749;28;20184;-68
2022/01/07 11:26:09;;;;;;;0.32;0.32;;;3.40;93.70;;;;;;5073692;28;20242;-68
2022/01/07 11:28:36;;;;;;;0.40;0.40;;;3.60;93.30;;;;;;5073561;28;20549;-68
2022/01/07 11:31:14;;;;;;;0.30;0.30;;;3.80;92.90;;;;;;5073729;28;20179;-68
2022/01/07 11:33:40;;;;;;;0.35;0.35;;;3.50;92.10;;;;;;5073397;28;20270;-68
2022/01/07 11:36:33;;;;;;;0.40;0.40;;;3.50;92.60;;;;;;5073428;28;20248;-68
2022/01/07 11:39:03;;;;;;;0.30;0.30;;;3.30;93.00;;;;;;5073227;28;20701;-68
2022/01/07 11:41:48;;;;;;;0.30;0.30;;;3.30;93.10;;;;;;5073815;28;20222;-69
2022/01/07 11:44:21;;;;;;;0.40;0.40;;;3.30;93.10;;;;;;5073570;28;20169;-68
2022/01/07 11:46:47;;;;;;;0.32;0.32;;;3.20;93.10;;;;;;5073766;28;20183;-69
2022/01/07 11:49:34;;;;;;;0.33;0.33;;;3.50;93.20;;;;;;5073201;28;20182;-68
2022/01/07 11:52:33;;;;;;;0.30;0.30;;;3.80;92.80;;;;;;5073438;28;20643;-68
2022/01/07 11:55:21;;;;;;;0.30;0.30;;;3.60;92.20;;;;;;5073142;28;20172;-68
2022/01/07 11:57:49;;;;;;;0.40;0.40;;;3.50;92.90;;;;;;5073212;28;20576;-68
2022/01/07 12:00:14;;;;;;;0.30;0.30;;;3.70;93.00;;;;;;5073050;28;20208;-68
2022/01/07 12:03:02;;;;;;;0.40;0.40;;;3.70;92.80;;;;;;5073400;28;20168;-68
2022/01/07 12:05:30;;;;;;;0.35;0.35;;;4.00;93.00;;;;;;5073073;28;20445;-68
2022/01/07 12:07:55;;;;;;;0.30;0.30;;;3.80;92.40;;;;;;5072984;28;20212;-69
2022/01/07 12:10:21;;;;;;;0.30;0.30;;;3.70;92.70;;;;;;5076237;28;20625;-68
2022/01/07 12:12:47;;;;;;;0.37;0.37;;;3.60;92.80;;;;;;5077221;28;20256;-68
2022/01/07 12:15:12;;;;;;;0.40;0.40;;;3.80;93.00;;;;;;5077129;28;20192;-68
2022/01/07 12:17:38;;;;;;;0.40;0.40;;;3.60;92.60;;;;;;5077015;28;20206;-68
2022/01/07 12:20:47;;;;;;;0.40;0.40;;;3.40;93.00;;;;;;5076707;28;20704;-69
2022/01/07 12:23:20;;;;;;;0.30;0.30;;;3.50;93.30;;;;;;5077152;28;20161;-69
2022/01/07 12:25:50;;;;;;;0.40;0.40;;;3.90;93.10;;;;;;5076973;28;20199;-68
2022/01/07 12:28:15;;;;;;;1.15;0.80;;;3.90;92.40;;;;;;5076633;28;20162;-68
2022/01/07 12:30:43;;;;;;;0.30;0.30;;;3.50;92.50;;;;;;5076759;28;20657;-68
2022/01/07 12:33:10;;;;;;;0.40;0.40;;;3.40;93.10;;;;;;5077099;28;20270;-68
2022/01/07 12:35:37;;;;;;;0.40;0.40;;;3.30;93.40;;;;;;5076662;28;20283;-68
2022/01/07 12:38:18;;;;;;;0.30;0.30;;;3.10;93.40;;;;;;5076491;28;20165;-68
2022/01/07 12:40:55;;;;;;;0.30;0.30;;;2.90;93.70;;;;;;5076774;28;20246;-68
2022/01/07 12:43:22;;;;;;;0.30;0.30;;;2.80;94.10;;;;;;5076810;28;20176;-68
2022/01/07 12:45:56;;;;;;;0.40;0.40;;;2.60;94.40;;;;;;5076471;28;20196;-68
2022/01/07 12:48:37;;;;;;;0.30;0.30;;;2.40;94.50;;;;;;5076289;28;20178;-68
2022/01/07 12:51:05;;;;;;;0.40;0.40;;;2.40;94.80;;;;;;5076581;28;20194;-68
2022/01/07 12:53:30;;;;;;;0.30;0.30;;;2.20;94.90;;;;;;5075068;28;20274;-68
2022/01/07 12:56:15;;;;;;;0.40;0.40;;;2.10;95.40;;;;;;5076068;28;20281;-68
2022/01/07 12:58:41;;;;;;;0.30;0.30;;;2.00;95.80;;;;;;5076071;28;20202;-68
2022/01/07 13:01:06;;;;;;;0.40;0.40;;;2.00;95.90;;;;;;5076295;28;20175;-68
2022/01/07 13:03:32;;;;;;;1.40;1.33;;;2.10;96.10;;;;;;5076358;28;20198;-68
2022/01/07 13:06:04;;;;;;;0.30;0.30;;;2.30;95.90;;;;;;5076137;28;20620;-68